sensor_id;sensor_type;location;lat;lon;timestamp;temperature;humidity
22532;DHT22;11432;46.924;7.114;2022-10-30T00:00:28;11.60;99.90
22532;DHT22;11432;46.924;7.114;2022-10-30T00:02:54;11.60;99.90
22532;DHT22;11432;46.924;7.114;2022-10-30T00:05:20;11.60;99.90
22532;DHT22;11432;46.924;7.114;2022-10-30T00:07:47;11.60;99.90
22532;DHT22;11432;46.924;7.114;2022-10-30T00:10:13;11.60;99.90
22532;DHT22;11432;46.924;7.114;2022-10-30T00:12:39;11.60;99.90
22532;DHT22;11432;46.924;7.114;2022-10-30T00:15:05;11.60;99.90
22532;DHT22;11432;46.924;7.114;2022-10-30T00:17:32;11.50;99.90
22532;DHT22;11432;46.924;7.114;2022-10-30T00:19:57;11.40;99.90
22532;DHT22;11432;46.924;7.114;2022-10-30T00:22:23;11.40;99.90
22532;DHT22;11432;46.924;7.114;2022-10-30T00:24:49;11.40;99.90
22532;DHT22;11432;46.924;7.114;2022-10-30T00:27:14;11.40;99.90
22532;DHT22;11432;46.924;7.114;2022-10-30T00:29:40;11.40;99.90
22532;DHT22;11432;46.924;7.114;2022-10-30T00:32:06;11.30;99.90
22532;DHT22;11432;46.924;7.114;2022-10-30T00:34:31;11.30;99.90
22532;DHT22;11432;46.924;7.114;2022-10-30T00:36:57;11.30;99.90
22532;DHT22;11432;46.924;7.114;2022-10-30T00:39:23;11.30;99.90
22532;DHT22;11432;46.924;7.114;2022-10-30T00:41:49;11.20;99.90
22532;DHT22;11432;46.924;7.114;2022-10-30T00:44:49;11.30;99.90
22532;DHT22;11432;46.924;7.114;2022-10-30T00:47:36;11.20;99.90
22532;DHT22;11432;46.924;7.114;2022-10-30T00:50:07;11.20;99.90
22532;DHT22;11432;46.924;7.114;2022-10-30T00:52:37;11.00;99.90
22532;DHT22;11432;46.924;7.114;2022-10-30T00:55:08;11.00;99.90
22532;DHT22;11432;46.924;7.114;2022-10-30T00:57:34;11.00;99.90
22532;DHT22;11432;46.924;7.114;2022-10-30T01:00:02;10.90;99.90
22532;DHT22;11432;46.924;7.114;2022-10-30T01:02:28;10.90;99.90
22532;DHT22;11432;46.924;7.114;2022-10-30T01:04:54;11.00;99.90
22532;DHT22;11432;46.924;7.114;2022-10-30T01:07:20;10.90;99.90
22532;DHT22;11432;46.924;7.114;2022-10-30T01:09:46;11.00;99.90
22532;DHT22;11432;46.924;7.114;2022-10-30T01:12:13;11.00;99.90
22532;DHT22;11432;46.924;7.114;2022-10-30T01:14:44;10.90;99.90
22532;DHT22;11432;46.924;7.114;2022-10-30T01:23:10;11.00;99.90
22532;DHT22;11432;46.924;7.114;2022-10-30T01:26:10;10.90;99.90
22532;DHT22;11432;46.924;7.114;2022-10-30T01:28:55;10.90;99.90
22532;DHT22;11432;46.924;7.114;2022-10-30T01:37:05;10.90;99.90
22532;DHT22;11432;46.924;7.114;2022-10-30T01:39:37;10.80;99.90
22532;DHT22;11432;46.924;7.114;2022-10-30T01:42:41;10.80;99.90
22532;DHT22;11432;46.924;7.114;2022-10-30T01:45:11;10.80;99.90
22532;DHT22;11432;46.924;7.114;2022-10-30T01:58:49;10.70;99.90
22532;DHT22;11432;46.924;7.114;2022-10-30T02:01:16;10.60;99.90
22532;DHT22;11432;46.924;7.114;2022-10-30T02:03:43;10.60;99.90
22532;DHT22;11432;46.924;7.114;2022-10-30T02:06:10;10.60;99.90
22532;DHT22;11432;46.924;7.114;2022-10-30T02:08:35;10.60;99.90
22532;DHT22;11432;46.924;7.114;2022-10-30T02:11:01;10.70;99.90
22532;DHT22;11432;46.924;7.114;2022-10-30T02:13:27;10.70;99.90
22532;DHT22;11432;46.924;7.114;2022-10-30T02:15:53;10.70;99.90
22532;DHT22;11432;46.924;7.114;2022-10-30T02:18:19;10.60;99.90
22532;DHT22;11432;46.924;7.114;2022-10-30T02:20:44;10.60;99.90
22532;DHT22;11432;46.924;7.114;2022-10-30T02:23:10;10.60;99.90
22532;DHT22;11432;46.924;7.114;2022-10-30T02:25:43;10.60;99.90
22532;DHT22;11432;46.924;7.114;2022-10-30T02:28:09;10.60;99.90
22532;DHT22;11432;46.924;7.114;2022-10-30T02:30:34;10.50;99.90
22532;DHT22;11432;46.924;7.114;2022-10-30T02:33:00;10.60;99.90
22532;DHT22;11432;46.924;7.114;2022-10-30T02:35:26;10.60;99.90
22532;DHT22;11432;46.924;7.114;2022-10-30T02:37:51;10.50;99.90
22532;DHT22;11432;46.924;7.114;2022-10-30T02:40:17;10.50;99.90
22532;DHT22;11432;46.924;7.114;2022-10-30T02:42:42;10.50;99.90
22532;DHT22;11432;46.924;7.114;2022-10-30T02:45:09;10.50;99.90
22532;DHT22;11432;46.924;7.114;2022-10-30T02:47:35;10.40;99.90
22532;DHT22;11432;46.924;7.114;2022-10-30T02:50:01;10.40;99.90
22532;DHT22;11432;46.924;7.114;2022-10-30T02:52:26;10.40;99.90
22532;DHT22;11432;46.924;7.114;2022-10-30T02:54:52;10.40;99.90
22532;DHT22;11432;46.924;7.114;2022-10-30T02:57:18;10.40;99.90
22532;DHT22;11432;46.924;7.114;2022-10-30T02:59:43;10.40;99.90
22532;DHT22;11432;46.924;7.114;2022-10-30T03:02:09;10.40;99.90
22532;DHT22;11432;46.924;7.114;2022-10-30T03:04:34;10.40;99.90
22532;DHT22;11432;46.924;7.114;2022-10-30T03:07:00;10.40;99.90
22532;DHT22;11432;46.924;7.114;2022-10-30T03:09:26;10.30;99.90
22532;DHT22;11432;46.924;7.114;2022-10-30T03:11:51;10.30;99.90
22532;DHT22;11432;46.924;7.114;2022-10-30T03:14:17;10.30;99.90
22532;DHT22;11432;46.924;7.114;2022-10-30T03:16:42;10.20;99.90
22532;DHT22;11432;46.924;7.114;2022-10-30T03:19:08;10.20;99.90
22532;DHT22;11432;46.924;7.114;2022-10-30T03:21:34;10.30;99.90
22532;DHT22;11432;46.924;7.114;2022-10-30T03:24:00;10.20;99.90
22532;DHT22;11432;46.924;7.114;2022-10-30T03:26:25;10.20;99.90
22532;DHT22;11432;46.924;7.114;2022-10-30T03:28:51;10.20;99.90
22532;DHT22;11432;46.924;7.114;2022-10-30T03:31:18;10.20;99.90
22532;DHT22;11432;46.924;7.114;2022-10-30T03:33:44;10.10;99.90
22532;DHT22;11432;46.924;7.114;2022-10-30T03:36:11;10.10;99.90
22532;DHT22;11432;46.924;7.114;2022-10-30T03:38:37;10.20;99.90
22532;DHT22;11432;46.924;7.114;2022-10-30T03:41:04;10.10;99.90
22532;DHT22;11432;46.924;7.114;2022-10-30T03:43:29;10.10;99.90
22532;DHT22;11432;46.924;7.114;2022-10-30T03:45:55;10.00;99.90
22532;DHT22;11432;46.924;7.114;2022-10-30T03:48:23;10.00;99.90
22532;DHT22;11432;46.924;7.114;2022-10-30T03:50:52;10.00;99.90
22532;DHT22;11432;46.924;7.114;2022-10-30T03:53:18;10.00;99.90
22532;DHT22;11432;46.924;7.114;2022-10-30T03:55:43;10.00;99.90
22532;DHT22;11432;46.924;7.114;2022-10-30T03:58:09;9.90;99.90
22532;DHT22;11432;46.924;7.114;2022-10-30T04:00:35;10.00;99.90
22532;DHT22;11432;46.924;7.114;2022-10-30T04:03:04;9.90;99.90
22532;DHT22;11432;46.924;7.114;2022-10-30T04:05:30;9.90;99.90
22532;DHT22;11432;46.924;7.114;2022-10-30T04:07:57;9.90;99.90
22532;DHT22;11432;46.924;7.114;2022-10-30T04:10:24;9.80;99.90
22532;DHT22;11432;46.924;7.114;2022-10-30T04:12:50;9.80;99.90
22532;DHT22;11432;46.924;7.114;2022-10-30T04:15:17;9.90;99.90
22532;DHT22;11432;46.924;7.114;2022-10-30T04:17:49;9.90;99.90
22532;DHT22;11432;46.924;7.114;2022-10-30T04:20:16;9.90;99.90
22532;DHT22;11432;46.924;7.114;2022-10-30T04:22:42;10.00;99.90
22532;DHT22;11432;46.924;7.114;2022-10-30T04:25:08;10.00;99.90
22532;DHT22;11432;46.924;7.114;2022-10-30T04:27:42;9.90;99.90
22532;DHT22;11432;46.924;7.114;2022-10-30T04:30:09;9.80;99.90
22532;DHT22;11432;46.924;7.114;2022-10-30T04:32:35;9.80;99.90
22532;DHT22;11432;46.924;7.114;2022-10-30T04:35:02;9.80;99.90
22532;DHT22;11432;46.924;7.114;2022-10-30T04:37:28;9.80;99.90
22532;DHT22;11432;46.924;7.114;2022-10-30T04:39:54;9.80;99.90
22532;DHT22;11432;46.924;7.114;2022-10-30T04:42:20;9.80;99.90
22532;DHT22;11432;46.924;7.114;2022-10-30T04:44:45;9.80;99.90
22532;DHT22;11432;46.924;7.114;2022-10-30T04:47:11;9.80;99.90
22532;DHT22;11432;46.924;7.114;2022-10-30T04:49:36;9.80;99.90
22532;DHT22;11432;46.924;7.114;2022-10-30T04:52:02;9.70;99.90
22532;DHT22;11432;46.924;7.114;2022-10-30T04:54:28;9.70;99.90
22532;DHT22;11432;46.924;7.114;2022-10-30T04:56:53;9.70;99.90
22532;DHT22;11432;46.924;7.114;2022-10-30T04:59:19;9.70;99.90
22532;DHT22;11432;46.924;7.114;2022-10-30T05:01:44;9.70;99.90
22532;DHT22;11432;46.924;7.114;2022-10-30T05:04:10;9.70;99.90
22532;DHT22;11432;46.924;7.114;2022-10-30T05:06:35;9.70;99.90
22532;DHT22;11432;46.924;7.114;2022-10-30T05:09:01;9.70;99.90
22532;DHT22;11432;46.924;7.114;2022-10-30T05:11:27;9.70;99.90
22532;DHT22;11432;46.924;7.114;2022-10-30T05:13:53;9.70;99.90
22532;DHT22;11432;46.924;7.114;2022-10-30T05:16:18;9.70;99.90
22532;DHT22;11432;46.924;7.114;2022-10-30T05:18:44;9.70;99.90
22532;DHT22;11432;46.924;7.114;2022-10-30T05:21:09;9.70;99.90
22532;DHT22;11432;46.924;7.114;2022-10-30T05:23:35;9.70;99.90
22532;DHT22;11432;46.924;7.114;2022-10-30T05:26:01;9.60;99.90
22532;DHT22;11432;46.924;7.114;2022-10-30T05:28:27;9.60;99.90
22532;DHT22;11432;46.924;7.114;2022-10-30T05:30:53;9.60;99.90
22532;DHT22;11432;46.924;7.114;2022-10-30T05:33:19;9.60;99.90
22532;DHT22;11432;46.924;7.114;2022-10-30T05:35:45;9.50;99.90
22532;DHT22;11432;46.924;7.114;2022-10-30T05:38:10;9.60;99.90
22532;DHT22;11432;46.924;7.114;2022-10-30T05:40:36;9.50;99.90
22532;DHT22;11432;46.924;7.114;2022-10-30T05:43:02;9.50;99.90
22532;DHT22;11432;46.924;7.114;2022-10-30T05:45:28;9.40;99.90
22532;DHT22;11432;46.924;7.114;2022-10-30T05:48:11;9.50;99.90
22532;DHT22;11432;46.924;7.114;2022-10-30T05:50:37;9.40;99.90
22532;DHT22;11432;46.924;7.114;2022-10-30T05:53:04;9.30;99.90
22532;DHT22;11432;46.924;7.114;2022-10-30T05:55:29;9.40;99.90
22532;DHT22;11432;46.924;7.114;2022-10-30T05:58:00;9.40;99.90
22532;DHT22;11432;46.924;7.114;2022-10-30T06:00:28;9.40;99.90
22532;DHT22;11432;46.924;7.114;2022-10-30T06:03:04;9.40;99.90
22532;DHT22;11432;46.924;7.114;2022-10-30T06:05:33;9.40;99.90
22532;DHT22;11432;46.924;7.114;2022-10-30T06:07:59;9.40;99.90
22532;DHT22;11432;46.924;7.114;2022-10-30T06:10:25;9.40;99.90
22532;DHT22;11432;46.924;7.114;2022-10-30T06:12:52;9.40;99.90
22532;DHT22;11432;46.924;7.114;2022-10-30T06:15:18;9.40;99.90
22532;DHT22;11432;46.924;7.114;2022-10-30T06:17:43;9.40;99.90
22532;DHT22;11432;46.924;7.114;2022-10-30T06:20:09;9.40;99.90
22532;DHT22;11432;46.924;7.114;2022-10-30T06:22:35;9.40;99.90
22532;DHT22;11432;46.924;7.114;2022-10-30T06:25:01;9.50;99.90
22532;DHT22;11432;46.924;7.114;2022-10-30T06:27:26;9.40;99.90
22532;DHT22;11432;46.924;7.114;2022-10-30T06:29:52;9.40;99.90
22532;DHT22;11432;46.924;7.114;2022-10-30T06:32:19;9.50;99.90
22532;DHT22;11432;46.924;7.114;2022-10-30T06:34:45;9.50;99.90
22532;DHT22;11432;46.924;7.114;2022-10-30T06:37:11;9.50;99.90
22532;DHT22;11432;46.924;7.114;2022-10-30T06:39:36;9.50;99.90
22532;DHT22;11432;46.924;7.114;2022-10-30T06:42:02;9.50;99.90
22532;DHT22;11432;46.924;7.114;2022-10-30T06:44:27;9.50;99.90
22532;DHT22;11432;46.924;7.114;2022-10-30T06:46:53;9.60;99.90
22532;DHT22;11432;46.924;7.114;2022-10-30T06:49:19;9.60;99.90
22532;DHT22;11432;46.924;7.114;2022-10-30T06:51:45;9.70;99.90
22532;DHT22;11432;46.924;7.114;2022-10-30T06:54:11;9.70;99.90
22532;DHT22;11432;46.924;7.114;2022-10-30T06:56:37;9.70;99.90
22532;DHT22;11432;46.924;7.114;2022-10-30T06:59:02;10.10;99.90
22532;DHT22;11432;46.924;7.114;2022-10-30T07:01:28;10.10;99.90
22532;DHT22;11432;46.924;7.114;2022-10-30T07:03:54;10.10;99.90
22532;DHT22;11432;46.924;7.114;2022-10-30T07:06:19;10.10;99.90
22532;DHT22;11432;46.924;7.114;2022-10-30T07:08:45;10.10;99.90
22532;DHT22;11432;46.924;7.114;2022-10-30T07:11:11;10.10;99.90
22532;DHT22;11432;46.924;7.114;2022-10-30T07:13:36;10.20;99.90
22532;DHT22;11432;46.924;7.114;2022-10-30T07:16:02;10.20;99.90
22532;DHT22;11432;46.924;7.114;2022-10-30T07:18:27;10.30;99.90
22532;DHT22;11432;46.924;7.114;2022-10-30T07:20:54;10.40;99.90
22532;DHT22;11432;46.924;7.114;2022-10-30T07:23:23;10.50;99.90
22532;DHT22;11432;46.924;7.114;2022-10-30T07:25:49;10.60;99.90
22532;DHT22;11432;46.924;7.114;2022-10-30T07:28:14;10.60;99.90
22532;DHT22;11432;46.924;7.114;2022-10-30T07:30:40;10.70;99.90
22532;DHT22;11432;46.924;7.114;2022-10-30T07:33:06;10.80;99.90
22532;DHT22;11432;46.924;7.114;2022-10-30T07:35:34;10.80;99.90
22532;DHT22;11432;46.924;7.114;2022-10-30T07:38:05;10.90;99.90
22532;DHT22;11432;46.924;7.114;2022-10-30T07:40:31;11.50;99.90
22532;DHT22;11432;46.924;7.114;2022-10-30T07:42:59;11.80;99.90
22532;DHT22;11432;46.924;7.114;2022-10-30T07:45:25;11.90;99.90
22532;DHT22;11432;46.924;7.114;2022-10-30T07:47:51;11.90;99.90
22532;DHT22;11432;46.924;7.114;2022-10-30T07:50:17;11.80;99.90
22532;DHT22;11432;46.924;7.114;2022-10-30T07:52:43;11.70;99.90
22532;DHT22;11432;46.924;7.114;2022-10-30T07:55:09;11.60;99.90
22532;DHT22;11432;46.924;7.114;2022-10-30T07:57:36;11.50;99.90
22532;DHT22;11432;46.924;7.114;2022-10-30T08:00:07;11.50;99.90
22532;DHT22;11432;46.924;7.114;2022-10-30T08:02:32;11.50;99.90
22532;DHT22;11432;46.924;7.114;2022-10-30T08:04:58;11.50;99.90
22532;DHT22;11432;46.924;7.114;2022-10-30T08:07:29;11.60;99.90
22532;DHT22;11432;46.924;7.114;2022-10-30T08:09:55;11.60;99.90
22532;DHT22;11432;46.924;7.114;2022-10-30T08:12:20;11.70;99.90
22532;DHT22;11432;46.924;7.114;2022-10-30T08:14:46;11.70;99.90
22532;DHT22;11432;46.924;7.114;2022-10-30T08:17:12;11.80;99.90
22532;DHT22;11432;46.924;7.114;2022-10-30T08:19:37;11.80;99.90
22532;DHT22;11432;46.924;7.114;2022-10-30T08:22:03;11.90;99.90
22532;DHT22;11432;46.924;7.114;2022-10-30T08:24:28;12.00;99.90
22532;DHT22;11432;46.924;7.114;2022-10-30T08:26:54;12.10;99.90
22532;DHT22;11432;46.924;7.114;2022-10-30T08:29:19;12.10;99.90
22532;DHT22;11432;46.924;7.114;2022-10-30T08:31:49;12.10;99.90
22532;DHT22;11432;46.924;7.114;2022-10-30T08:34:15;12.10;99.90
22532;DHT22;11432;46.924;7.114;2022-10-30T08:36:41;12.10;99.90
22532;DHT22;11432;46.924;7.114;2022-10-30T08:39:08;12.20;99.90
22532;DHT22;11432;46.924;7.114;2022-10-30T08:41:33;12.30;99.90
22532;DHT22;11432;46.924;7.114;2022-10-30T08:43:59;12.40;99.90
22532;DHT22;11432;46.924;7.114;2022-10-30T08:46:25;12.50;99.90
22532;DHT22;11432;46.924;7.114;2022-10-30T08:48:50;12.50;99.90
22532;DHT22;11432;46.924;7.114;2022-10-30T08:51:16;12.60;99.90
22532;DHT22;11432;46.924;7.114;2022-10-30T08:53:41;12.70;99.90
22532;DHT22;11432;46.924;7.114;2022-10-30T08:57:36;12.80;99.90
22532;DHT22;11432;46.924;7.114;2022-10-30T09:00:03;12.90;99.90
22532;DHT22;11432;46.924;7.114;2022-10-30T09:02:29;13.00;99.90
22532;DHT22;11432;46.924;7.114;2022-10-30T09:04:54;13.00;99.90
22532;DHT22;11432;46.924;7.114;2022-10-30T09:07:20;13.10;99.90
22532;DHT22;11432;46.924;7.114;2022-10-30T09:09:46;13.20;99.90
22532;DHT22;11432;46.924;7.114;2022-10-30T09:12:11;13.30;99.90
22532;DHT22;11432;46.924;7.114;2022-10-30T09:14:37;13.40;99.90
22532;DHT22;11432;46.924;7.114;2022-10-30T09:17:02;13.60;99.90
22532;DHT22;11432;46.924;7.114;2022-10-30T09:19:28;13.70;99.90
22532;DHT22;11432;46.924;7.114;2022-10-30T09:21:54;13.60;99.90
22532;DHT22;11432;46.924;7.114;2022-10-30T09:24:19;13.50;99.90
22532;DHT22;11432;46.924;7.114;2022-10-30T09:26:45;13.40;99.90
22532;DHT22;11432;46.924;7.114;2022-10-30T09:29:10;13.30;99.90
22532;DHT22;11432;46.924;7.114;2022-10-30T09:31:36;13.40;99.90
22532;DHT22;11432;46.924;7.114;2022-10-30T09:34:02;13.40;99.90
22532;DHT22;11432;46.924;7.114;2022-10-30T09:36:27;13.40;99.90
22532;DHT22;11432;46.924;7.114;2022-10-30T09:38:53;13.40;99.90
22532;DHT22;11432;46.924;7.114;2022-10-30T09:41:29;13.60;99.90
22532;DHT22;11432;46.924;7.114;2022-10-30T09:47:06;13.80;99.90
22532;DHT22;11432;46.924;7.114;2022-10-30T09:52:44;13.80;99.90
22532;DHT22;11432;46.924;7.114;2022-10-30T09:56:14;13.90;99.90
22532;DHT22;11432;46.924;7.114;2022-10-30T10:06:27;13.90;99.90
22532;DHT22;11432;46.924;7.114;2022-10-30T10:08:57;14.00;99.90
22532;DHT22;11432;46.924;7.114;2022-10-30T10:11:30;14.20;99.90
22532;DHT22;11432;46.924;7.114;2022-10-30T10:14:05;14.40;99.90
22532;DHT22;11432;46.924;7.114;2022-10-30T10:16:37;14.60;99.90
22532;DHT22;11432;46.924;7.114;2022-10-30T10:21:29;15.80;99.90
22532;DHT22;11432;46.924;7.114;2022-10-30T10:24:00;16.40;99.90
22532;DHT22;11432;46.924;7.114;2022-10-30T10:29:31;17.40;80.10
22532;DHT22;11432;46.924;7.114;2022-10-30T10:32:18;17.60;1.00
22532;DHT22;11432;46.924;7.114;2022-10-30T10:38:00;17.90;1.00
22532;DHT22;11432;46.924;7.114;2022-10-30T10:46:13;17.50;1.00
22532;DHT22;11432;46.924;7.114;2022-10-30T10:48:46;17.20;1.00
22532;DHT22;11432;46.924;7.114;2022-10-30T10:53:55;17.40;1.00
22532;DHT22;11432;46.924;7.114;2022-10-30T10:56:28;17.40;1.00
22532;DHT22;11432;46.924;7.114;2022-10-30T10:58:58;17.70;1.00
22532;DHT22;11432;46.924;7.114;2022-10-30T11:04:39;17.50;1.00
22532;DHT22;11432;46.924;7.114;2022-10-30T11:09:42;17.70;1.00
22532;DHT22;11432;46.924;7.114;2022-10-30T11:12:08;18.10;1.00
22532;DHT22;11432;46.924;7.114;2022-10-30T11:14:34;18.40;1.00
22532;DHT22;11432;46.924;7.114;2022-10-30T11:19:36;19.00;12.10
22532;DHT22;11432;46.924;7.114;2022-10-30T11:22:02;19.10;22.20
22532;DHT22;11432;46.924;7.114;2022-10-30T11:24:33;19.40;16.30
22532;DHT22;11432;46.924;7.114;2022-10-30T11:27:25;20.00;24.10
22532;DHT22;11432;46.924;7.114;2022-10-30T11:29:57;20.40;36.80
22532;DHT22;11432;46.924;7.114;2022-10-30T11:32:29;21.00;56.20
22532;DHT22;11432;46.924;7.114;2022-10-30T11:37:37;20.70;43.20
22532;DHT22;11432;46.924;7.114;2022-10-30T11:42:57;20.60;40.80
22532;DHT22;11432;46.924;7.114;2022-10-30T11:45:28;21.00;41.40
22532;DHT22;11432;46.924;7.114;2022-10-30T11:47:56;21.50;52.60
22532;DHT22;11432;46.924;7.114;2022-10-30T11:50:25;21.90;56.50
22532;DHT22;11432;46.924;7.114;2022-10-30T11:53:11;21.80;56.20
22532;DHT22;11432;46.924;7.114;2022-10-30T11:55:44;21.30;52.40
22532;DHT22;11432;46.924;7.114;2022-10-30T11:58:33;21.60;57.00
22532;DHT22;11432;46.924;7.114;2022-10-30T12:01:04;21.80;52.00
22532;DHT22;11432;46.924;7.114;2022-10-30T12:03:38;22.40;53.10
22532;DHT22;11432;46.924;7.114;2022-10-30T12:11:35;23.40;56.40
22532;DHT22;11432;46.924;7.114;2022-10-30T12:14:02;23.80;53.90
22532;DHT22;11432;46.924;7.114;2022-10-30T12:16:28;23.10;54.80
22532;DHT22;11432;46.924;7.114;2022-10-30T12:19:04;22.80;42.60
22532;DHT22;11432;46.924;7.114;2022-10-30T12:21:38;21.90;29.20
22532;DHT22;11432;46.924;7.114;2022-10-30T12:24:05;21.60;15.70
22532;DHT22;11432;46.924;7.114;2022-10-30T12:26:38;21.60;24.10
22532;DHT22;11432;46.924;7.114;2022-10-30T12:29:11;21.80;13.70
22532;DHT22;11432;46.924;7.114;2022-10-30T12:32:01;22.40;12.90
22532;DHT22;11432;46.924;7.114;2022-10-30T12:37:28;22.40;8.50
22532;DHT22;11432;46.924;7.114;2022-10-30T12:40:23;22.50;8.20
22532;DHT22;11432;46.924;7.114;2022-10-30T12:43:09;22.00;1.80
22532;DHT22;11432;46.924;7.114;2022-10-30T12:45:40;22.20;1.90
22532;DHT22;11432;46.924;7.114;2022-10-30T12:48:15;22.60;1.00
22532;DHT22;11432;46.924;7.114;2022-10-30T12:53:46;23.00;15.40
22532;DHT22;11432;46.924;7.114;2022-10-30T12:56:19;23.40;17.40
22532;DHT22;11432;46.924;7.114;2022-10-30T12:58:56;23.80;16.80
22532;DHT22;11432;46.924;7.114;2022-10-30T13:01:34;24.30;21.60
22532;DHT22;11432;46.924;7.114;2022-10-30T13:04:40;24.10;20.10
22532;DHT22;11432;46.924;7.114;2022-10-30T13:07:30;24.20;21.60
22532;DHT22;11432;46.924;7.114;2022-10-30T13:10:02;24.00;17.70
22532;DHT22;11432;46.924;7.114;2022-10-30T13:12:32;23.90;14.50
22532;DHT22;11432;46.924;7.114;2022-10-30T13:15:16;23.40;13.40
22532;DHT22;11432;46.924;7.114;2022-10-30T13:17:43;23.40;8.20
22532;DHT22;11432;46.924;7.114;2022-10-30T13:20:13;23.40;8.10
22532;DHT22;11432;46.924;7.114;2022-10-30T13:23:19;22.80;1.00
22532;DHT22;11432;46.924;7.114;2022-10-30T13:25:57;22.60;1.00
22532;DHT22;11432;46.924;7.114;2022-10-30T13:28:58;22.70;1.00
22532;DHT22;11432;46.924;7.114;2022-10-30T13:31:32;23.00;1.00
22532;DHT22;11432;46.924;7.114;2022-10-30T13:36:52;23.20;1.00
22532;DHT22;11432;46.924;7.114;2022-10-30T13:48:22;22.40;1.00
22532;DHT22;11432;46.924;7.114;2022-10-30T13:53:39;22.10;1.00
22532;DHT22;11432;46.924;7.114;2022-10-30T13:56:11;21.30;1.00
22532;DHT22;11432;46.924;7.114;2022-10-30T13:58:50;20.50;1.00
22532;DHT22;11432;46.924;7.114;2022-10-30T14:01:34;20.10;99.90
22532;DHT22;11432;46.924;7.114;2022-10-30T14:09:38;19.60;1.00
22532;DHT22;11432;46.924;7.114;2022-10-30T14:12:46;19.60;1.00
22532;DHT22;11432;46.924;7.114;2022-10-30T14:20:54;19.40;1.00
22532;DHT22;11432;46.924;7.114;2022-10-30T14:23:35;19.30;1.00
22532;DHT22;11432;46.924;7.114;2022-10-30T14:28:26;19.10;1.00
22532;DHT22;11432;46.924;7.114;2022-10-30T14:31:12;19.00;1.00
22532;DHT22;11432;46.924;7.114;2022-10-30T14:33:52;19.00;1.00
22532;DHT22;11432;46.924;7.114;2022-10-30T14:38:58;19.00;1.00
22532;DHT22;11432;46.924;7.114;2022-10-30T14:46:43;19.00;1.00
22532;DHT22;11432;46.924;7.114;2022-10-30T14:52:16;18.90;1.00
22532;DHT22;11432;46.924;7.114;2022-10-30T14:54:53;18.80;1.00
22532;DHT22;11432;46.924;7.114;2022-10-30T15:06:05;18.70;1.00
22532;DHT22;11432;46.924;7.114;2022-10-30T15:11:36;18.70;1.00
22532;DHT22;11432;46.924;7.114;2022-10-30T15:14:12;18.60;1.00
22532;DHT22;11432;46.924;7.114;2022-10-30T15:16:40;18.60;1.00
22532;DHT22;11432;46.924;7.114;2022-10-30T15:19:08;18.60;1.00
22532;DHT22;11432;46.924;7.114;2022-10-30T15:21:42;18.50;1.00
22532;DHT22;11432;46.924;7.114;2022-10-30T15:24:20;18.40;1.00
22532;DHT22;11432;46.924;7.114;2022-10-30T15:26:52;18.20;1.00
22532;DHT22;11432;46.924;7.114;2022-10-30T15:29:33;18.20;1.00
22532;DHT22;11432;46.924;7.114;2022-10-30T15:32:02;18.10;1.00
22532;DHT22;11432;46.924;7.114;2022-10-30T15:34:31;18.10;1.00
22532;DHT22;11432;46.924;7.114;2022-10-30T15:36:57;18.10;1.00
22532;DHT22;11432;46.924;7.114;2022-10-30T15:39:23;18.10;1.00
22532;DHT22;11432;46.924;7.114;2022-10-30T15:41:57;18.10;1.00
22532;DHT22;11432;46.924;7.114;2022-10-30T15:44:35;18.00;1.00
22532;DHT22;11432;46.924;7.114;2022-10-30T15:47:02;18.00;1.00
22532;DHT22;11432;46.924;7.114;2022-10-30T15:49:32;18.00;1.00
22532;DHT22;11432;46.924;7.114;2022-10-30T15:52:19;17.90;1.00
22532;DHT22;11432;46.924;7.114;2022-10-30T15:54:50;17.80;1.00
22532;DHT22;11432;46.924;7.114;2022-10-30T15:57:23;17.60;1.00
22532;DHT22;11432;46.924;7.114;2022-10-30T15:59:55;17.50;1.00
22532;DHT22;11432;46.924;7.114;2022-10-30T16:02:23;17.40;1.00
22532;DHT22;11432;46.924;7.114;2022-10-30T16:04:51;17.30;1.00
22532;DHT22;11432;46.924;7.114;2022-10-30T16:07:27;17.20;18.10
22532;DHT22;11432;46.924;7.114;2022-10-30T16:09:58;17.10;53.10
22532;DHT22;11432;46.924;7.114;2022-10-30T16:12:26;17.10;48.60
22532;DHT22;11432;46.924;7.114;2022-10-30T16:14:54;17.00;69.10
22532;DHT22;11432;46.924;7.114;2022-10-30T16:17:20;16.80;99.90
22532;DHT22;11432;46.924;7.114;2022-10-30T16:19:49;16.60;99.90
22532;DHT22;11432;46.924;7.114;2022-10-30T16:22:19;16.50;99.90
22532;DHT22;11432;46.924;7.114;2022-10-30T16:24:46;16.30;99.90
22532;DHT22;11432;46.924;7.114;2022-10-30T16:27:17;16.20;99.90
22532;DHT22;11432;46.924;7.114;2022-10-30T16:29:45;16.10;99.90
22532;DHT22;11432;46.924;7.114;2022-10-30T16:32:13;16.00;99.90
22532;DHT22;11432;46.924;7.114;2022-10-30T16:34:41;15.80;99.90
22532;DHT22;11432;46.924;7.114;2022-10-30T16:37:36;15.70;99.90
22532;DHT22;11432;46.924;7.114;2022-10-30T16:40:13;15.60;99.90
22532;DHT22;11432;46.924;7.114;2022-10-30T16:42:39;15.50;99.90
22532;DHT22;11432;46.924;7.114;2022-10-30T16:47:57;15.40;99.90
22532;DHT22;11432;46.924;7.114;2022-10-30T16:50:30;15.30;99.90
22532;DHT22;11432;46.924;7.114;2022-10-30T16:55:42;15.20;99.90
22532;DHT22;11432;46.924;7.114;2022-10-30T16:58:10;15.00;99.90
22532;DHT22;11432;46.924;7.114;2022-10-30T17:00:39;15.00;99.90
22532;DHT22;11432;46.924;7.114;2022-10-30T17:03:09;15.00;99.90
22532;DHT22;11432;46.924;7.114;2022-10-30T17:05:36;14.90;99.90
22532;DHT22;11432;46.924;7.114;2022-10-30T17:08:26;14.90;99.90
22532;DHT22;11432;46.924;7.114;2022-10-30T17:10:58;14.70;99.90
22532;DHT22;11432;46.924;7.114;2022-10-30T17:13:38;14.90;99.90
22532;DHT22;11432;46.924;7.114;2022-10-30T17:16:36;14.80;99.90
22532;DHT22;11432;46.924;7.114;2022-10-30T17:21:54;14.60;99.90
22532;DHT22;11432;46.924;7.114;2022-10-30T17:24:40;14.50;99.90
22532;DHT22;11432;46.924;7.114;2022-10-30T17:27:24;14.50;99.90
22532;DHT22;11432;46.924;7.114;2022-10-30T17:29:52;14.40;99.90
22532;DHT22;11432;46.924;7.114;2022-10-30T17:32:25;14.30;99.90
22532;DHT22;11432;46.924;7.114;2022-10-30T17:35:00;14.20;99.90
22532;DHT22;11432;46.924;7.114;2022-10-30T17:37:27;14.20;99.90
22532;DHT22;11432;46.924;7.114;2022-10-30T17:39:52;14.10;99.90
22532;DHT22;11432;46.924;7.114;2022-10-30T17:42:18;14.10;99.90
22532;DHT22;11432;46.924;7.114;2022-10-30T17:44:44;14.00;99.90
22532;DHT22;11432;46.924;7.114;2022-10-30T17:47:16;14.00;99.90
22532;DHT22;11432;46.924;7.114;2022-10-30T17:49:42;14.00;99.90
22532;DHT22;11432;46.924;7.114;2022-10-30T17:52:12;14.00;99.90
22532;DHT22;11432;46.924;7.114;2022-10-30T17:54:40;14.00;99.90
22532;DHT22;11432;46.924;7.114;2022-10-30T17:57:05;14.00;99.90
22532;DHT22;11432;46.924;7.114;2022-10-30T17:59:31;13.90;99.90
22532;DHT22;11432;46.924;7.114;2022-10-30T18:01:56;13.90;99.90
22532;DHT22;11432;46.924;7.114;2022-10-30T18:04:22;13.80;99.90
22532;DHT22;11432;46.924;7.114;2022-10-30T18:06:48;13.80;99.90
22532;DHT22;11432;46.924;7.114;2022-10-30T18:09:14;13.80;99.90